createdAt,value
2022-10-22T00:00:23.314Z,24.45
2022-10-22T00:03:08.661Z,17.95
2022-10-22T00:05:54.341Z,23.33
2022-10-22T00:08:39.878Z,17.40
2022-10-22T00:11:26.836Z,22.98
2022-10-22T00:14:12.592Z,16.25
2022-10-22T00:17:00.945Z,19.40
2022-10-22T00:19:46.189Z,21.08
2022-10-22T00:22:32.071Z,24.20
2022-10-22T00:25:17.439Z,18.23
2022-10-22T00:28:03.807Z,26.10
2022-10-22T00:31:05.249Z,23.77
2022-10-22T00:33:53.530Z,18.20
2022-10-22T00:36:38.927Z,17.20
2022-10-22T00:39:25.877Z,19.02
2022-10-22T00:42:24.559Z,19.35
2022-10-22T00:45:15.574Z,17.48
2022-10-22T00:48:08.971Z,16.40
2022-10-22T00:51:05.307Z,16.40
2022-10-22T00:53:55.993Z,16.00
2022-10-22T00:56:41.408Z,15.88
2022-10-22T00:59:27.804Z,12.38
2022-10-22T01:02:13.524Z,17.50
2022-10-22T01:05:02.136Z,14.52
2022-10-22T01:07:51.370Z,18.08
2022-10-22T01:11:00.671Z,15.95
2022-10-22T01:14:08.751Z,17.17
2022-10-22T01:16:57.793Z,19.52
2022-10-22T01:19:50.541Z,11.10
2022-10-22T01:22:50.224Z,15.05
2022-10-22T01:25:39.674Z,14.07
2022-10-22T01:28:51.445Z,12.88
2022-10-22T01:31:44.624Z,18.65
2022-10-22T01:34:43.583Z,14.27
2022-10-22T01:37:32.595Z,20.00
2022-10-22T01:40:21.512Z,19.10
2022-10-22T01:43:09.155Z,15.07
2022-10-22T01:45:59.996Z,19.40
2022-10-22T01:49:12.061Z,14.52
2022-10-22T01:52:18.859Z,24.08
2022-10-22T01:55:17.694Z,19.75
2022-10-22T01:58:37.454Z,14.02
2022-10-22T02:01:42.855Z,11.40
2022-10-22T02:04:37.681Z,14.02
2022-10-22T02:07:29.816Z,14.57
2022-10-22T02:10:19.741Z,21.73
2022-10-22T02:13:10.388Z,16.17
2022-10-22T02:15:57.824Z,20.13
2022-10-22T02:18:46.443Z,16.42
2022-10-22T02:21:32.400Z,13.18
2022-10-22T02:24:19.236Z,13.77
2022-10-22T02:27:34.442Z,16.77
2022-10-22T02:30:22.615Z,15.77
2022-10-22T02:33:13.208Z,22.10
2022-10-22T02:36:00.216Z,26.45
2022-10-22T02:38:47.636Z,18.48
2022-10-22T02:41:33.203Z,15.98
2022-10-22T02:44:21.904Z,16.10
2022-10-22T02:47:07.652Z,14.13
2022-10-22T02:49:53.019Z,15.02
2022-10-22T02:52:39.333Z,21.90
2022-10-22T02:55:24.608Z,16.30
2022-10-22T02:58:11.160Z,28.00
2022-10-22T03:00:56.787Z,16.75
2022-10-22T03:03:45.501Z,12.55
2022-10-22T03:06:31.042Z,14.43
2022-10-22T03:09:20.037Z,11.30
2022-10-22T03:12:10.468Z,16.65
2022-10-22T03:15:00.872Z,19.23
2022-10-22T03:17:46.363Z,16.30
2022-10-22T03:20:31.884Z,15.82
2022-10-22T03:23:19.890Z,16.55
2022-10-22T03:26:06.067Z,13.50
2022-10-22T03:28:54.662Z,13.07
2022-10-22T03:31:40.296Z,14.48
2022-10-22T03:34:25.652Z,7.82
2022-10-22T03:37:11.829Z,17.45
2022-10-22T03:39:57.669Z,14.25
2022-10-22T03:42:43.369Z,15.38
2022-10-22T03:45:28.623Z,17.17
2022-10-22T03:48:14.151Z,20.02
2022-10-22T03:50:59.620Z,19.15
2022-10-22T03:53:45.241Z,19.98
2022-10-22T03:56:30.833Z,17.33
2022-10-22T03:59:18.814Z,20.30
2022-10-22T04:02:04.577Z,12.70
2022-10-22T04:04:53.193Z,10.18
2022-10-22T04:07:41.842Z,16.30
2022-10-22T04:10:27.627Z,13.00
2022-10-22T04:13:13.781Z,19.10
2022-10-22T04:16:14.640Z,18.88
2022-10-22T04:19:00.362Z,20.67
2022-10-22T04:21:46.007Z,22.42
2022-10-22T04:24:32.915Z,22.80
2022-10-22T04:27:20.920Z,16.65
2022-10-22T04:30:06.718Z,12.25
2022-10-22T04:32:54.150Z,20.00
2022-10-22T04:35:45.891Z,20.42
2022-10-22T04:38:31.283Z,21.05
2022-10-22T04:41:19.139Z,17.40
2022-10-22T04:44:12.218Z,18.50
2022-10-22T04:47:01.904Z,19.55
2022-10-22T04:49:53.443Z,20.70
2022-10-22T04:52:41.181Z,17.65
2022-10-22T04:55:26.628Z,13.20
2022-10-22T04:58:12.108Z,17.42
2022-10-22T05:00:57.486Z,17.45
2022-10-22T05:03:43.267Z,16.88
2022-10-22T05:06:30.288Z,12.52
2022-10-22T05:09:19.373Z,17.65
2022-10-22T05:12:06.410Z,19.90
2022-10-22T05:14:54.384Z,17.90
2022-10-22T05:17:39.945Z,21.92
2022-10-22T05:20:25.599Z,18.40
2022-10-22T05:23:11.080Z,20.38
2022-10-22T05:25:56.539Z,15.70
2022-10-22T05:28:42.356Z,13.38
2022-10-22T05:31:28.951Z,19.33
2022-10-22T05:34:15.072Z,17.92
2022-10-22T05:37:00.436Z,23.73
2022-10-22T05:39:45.952Z,18.83
2022-10-22T05:42:32.776Z,19.65
2022-10-22T05:45:21.125Z,21.58
2022-10-22T05:48:08.155Z,14.32
2022-10-22T05:50:57.128Z,23.80
2022-10-22T05:53:42.882Z,21.33
2022-10-22T05:56:30.440Z,14.75
2022-10-22T05:59:16.113Z,16.52
2022-10-22T06:02:01.381Z,22.05
2022-10-22T06:04:47.826Z,24.73
2022-10-22T06:07:33.458Z,16.50
2022-10-22T06:10:21.067Z,17.20
2022-10-22T06:13:08.101Z,23.23
2022-10-22T06:15:53.782Z,21.70
2022-10-22T06:18:40.992Z,20.75
2022-10-22T06:21:26.753Z,21.60
2022-10-22T06:24:12.615Z,12.43
2022-10-22T06:26:57.784Z,14.32
2022-10-22T06:29:45.856Z,17.95
2022-10-22T06:32:31.543Z,15.32
2022-10-22T06:35:17.265Z,14.38
2022-10-22T06:38:02.555Z,25.35
2022-10-22T06:40:48.487Z,18.95
2022-10-22T06:43:33.889Z,16.70
2022-10-22T06:46:21.272Z,20.92
2022-10-22T06:49:07.080Z,15.93
2022-10-22T06:51:53.721Z,15.02
2022-10-22T06:54:39.039Z,13.02
2022-10-22T06:57:24.647Z,19.25
2022-10-22T07:00:10.927Z,16.08
2022-10-22T07:02:59.003Z,21.90
2022-10-22T07:05:45.369Z,15.00
2022-10-22T07:08:31.005Z,14.77
2022-10-22T07:11:22.752Z,18.38
2022-10-22T07:14:08.613Z,13.15
2022-10-22T07:16:57.243Z,15.85
2022-10-22T07:19:42.576Z,18.38
2022-10-22T07:22:34.053Z,12.00
2022-10-22T07:25:20.694Z,13.98
2022-10-22T07:28:06.340Z,17.00
2022-10-22T07:30:51.480Z,12.77
2022-10-22T07:33:37.932Z,24.08
2022-10-22T07:36:23.489Z,17.95
2022-10-22T07:39:12.104Z,22.00
2022-10-22T07:41:57.777Z,16.10
2022-10-22T07:44:42.991Z,16.58
2022-10-22T07:47:28.591Z,21.73
2022-10-22T07:50:14.033Z,11.40
2022-10-22T07:52:59.567Z,16.20
2022-10-22T07:55:49.285Z,19.40
2022-10-22T07:58:34.996Z,16.42
2022-10-22T08:01:20.940Z,16.08
2022-10-22T08:04:10.129Z,21.35
2022-10-22T08:06:55.790Z,14.57
2022-10-22T08:09:41.057Z,17.67
2022-10-22T08:12:26.787Z,15.27
2022-10-22T08:15:12.016Z,14.30
2022-10-22T08:17:57.503Z,14.73
2022-10-22T08:20:46.635Z,21.25
2022-10-22T08:23:32.355Z,16.13
2022-10-22T08:26:18.400Z,16.67
2022-10-22T08:29:04.325Z,16.83
2022-10-22T08:31:51.876Z,18.55
2022-10-22T08:34:41.566Z,11.35
2022-10-22T08:37:27.459Z,14.80
2022-10-22T08:40:28.165Z,13.57
2022-10-22T08:43:38.633Z,16.95
2022-10-22T08:46:29.780Z,15.55
2022-10-22T08:49:24.005Z,12.57
2022-10-22T08:52:21.256Z,20.38
2022-10-22T08:55:13.979Z,16.77
2022-10-22T08:58:03.156Z,13.32
2022-10-22T09:01:00.339Z,17.73
2022-10-22T09:04:05.685Z,14.23
2022-10-22T09:06:54.444Z,18.13
2022-10-22T09:09:49.031Z,13.85
2022-10-22T09:12:34.511Z,20.83
2022-10-22T09:15:20.267Z,16.30
2022-10-22T09:18:27.728Z,12.80
2022-10-22T09:21:43.772Z,16.20
2022-10-22T09:27:21.292Z,14.05
2022-10-22T09:30:07.093Z,10.60
2022-10-22T09:33:14.924Z,11.73
2022-10-22T09:36:11.257Z,13.73
2022-10-22T09:38:57.403Z,17.95
2022-10-22T09:41:42.948Z,14.77
2022-10-22T09:44:28.619Z,12.18
2022-10-22T09:50:58.670Z,14.30
2022-10-22T09:53:46.757Z,12.60
2022-10-22T09:56:41.668Z,16.23
2022-10-22T09:59:33.693Z,13.18
2022-10-22T10:02:37.917Z,16.65
2022-10-22T10:05:37.748Z,15.38
2022-10-22T10:08:24.675Z,17.27
2022-10-22T10:11:30.011Z,14.90
2022-10-22T10:14:27.741Z,18.55
2022-10-22T10:17:33.590Z,13.90
2022-10-22T10:20:39.180Z,16.17
2022-10-22T10:24:02.176Z,13.57
2022-10-22T10:26:57.428Z,14.93
2022-10-22T10:29:53.135Z,21.13
2022-10-22T10:33:05.244Z,15.80
2022-10-22T10:36:02.615Z,17.52
2022-10-22T10:39:00.811Z,18.45
2022-10-22T10:41:50.147Z,18.17
2022-10-22T10:44:50.570Z,18.70
2022-10-22T10:48:05.157Z,14.27
2022-10-22T10:51:26.593Z,16.02
2022-10-22T10:54:31.553Z,19.90
2022-10-22T10:57:56.739Z,28.42
2022-10-22T11:00:56.661Z,28.88
2022-10-22T11:04:03.083Z,17.23
2022-10-22T11:06:50.815Z,13.95
2022-10-22T11:09:43.180Z,24.70
2022-10-22T11:12:36.046Z,20.38
2022-10-22T11:15:32.168Z,21.55
2022-10-22T11:18:37.379Z,10.13
2022-10-22T11:21:45.228Z,23.73
2022-10-22T11:24:56.192Z,19.73
2022-10-22T11:27:51.397Z,18.02
2022-10-22T11:33:45.762Z,16.95
2022-10-22T11:36:33.240Z,24.60
2022-10-22T11:39:51.172Z,19.30
2022-10-22T11:42:40.947Z,21.38
2022-10-22T11:45:30.023Z,22.75
2022-10-22T11:48:19.467Z,17.17
2022-10-22T11:51:25.156Z,20.92
2022-10-22T11:54:37.511Z,18.70
2022-10-22T11:57:30.626Z,20.15
2022-10-22T12:00:46.099Z,16.77
2022-10-22T12:03:31.768Z,19.60
2022-10-22T12:06:27.850Z,20.17
2022-10-22T12:09:13.238Z,21.23
2022-10-22T12:12:04.627Z,19.40
2022-10-22T12:14:56.746Z,27.33
2022-10-22T12:17:43.062Z,17.15
2022-10-22T12:20:32.208Z,21.27
2022-10-22T12:23:17.743Z,19.65
2022-10-22T12:26:05.339Z,18.83
2022-10-22T12:28:50.786Z,16.95
2022-10-22T12:31:44.461Z,21.30
2022-10-22T12:34:29.732Z,12.05
2022-10-22T12:37:16.047Z,14.90
2022-10-22T12:40:01.627Z,14.35
2022-10-22T12:42:50.843Z,12.23
2022-10-22T12:45:38.440Z,16.70
2022-10-22T12:48:38.899Z,21.63
2022-10-22T12:51:24.289Z,19.02
2022-10-22T12:54:29.495Z,22.42
2022-10-22T12:57:17.504Z,18.35
2022-10-22T13:00:04.050Z,18.90
2022-10-22T13:02:49.504Z,14.38
2022-10-22T13:05:42.660Z,13.02
2022-10-22T13:08:29.197Z,16.27
2022-10-22T13:11:20.190Z,10.60
2022-10-22T13:14:15.818Z,21.48
2022-10-22T13:17:18.713Z,17.27
2022-10-22T13:20:15.727Z,14.88
2022-10-22T13:23:03.283Z,13.70
2022-10-22T13:25:59.605Z,14.77
2022-10-22T13:28:53.329Z,12.80
2022-10-22T13:31:46.183Z,13.73
2022-10-22T13:34:36.303Z,11.75
2022-10-22T13:37:21.892Z,11.10
2022-10-22T13:40:14.453Z,13.70
2022-10-22T13:42:59.977Z,12.98
2022-10-22T13:45:47.504Z,11.15
2022-10-22T13:48:33.055Z,14.13
2022-10-22T13:51:24.517Z,13.52
2022-10-22T13:54:18.138Z,16.65
2022-10-22T13:57:08.881Z,19.40
2022-10-22T13:59:54.213Z,19.30
2022-10-22T14:02:43.683Z,19.85
2022-10-22T14:05:30.474Z,19.10
2022-10-22T14:08:19.163Z,19.17
2022-10-22T14:11:04.805Z,21.40
2022-10-22T14:13:50.220Z,26.02
2022-10-22T14:16:37.123Z,19.48
2022-10-22T14:19:22.809Z,14.55
2022-10-22T14:22:16.558Z,16.33
2022-10-22T14:25:02.183Z,16.33
2022-10-22T14:27:48.279Z,22.85
2022-10-22T14:30:33.617Z,23.30
2022-10-22T14:33:29.030Z,16.25
2022-10-22T14:36:18.649Z,17.05
2022-10-22T14:39:04.228Z,17.40
2022-10-22T14:41:49.776Z,19.00
2022-10-22T14:44:35.291Z,17.40
2022-10-22T14:47:21.519Z,21.20
2022-10-22T14:50:08.005Z,15.60
2022-10-22T14:52:53.787Z,14.90
2022-10-22T14:55:39.742Z,16.88
2022-10-22T14:58:28.676Z,14.02
2022-10-22T15:01:14.443Z,22.45
2022-10-22T15:03:59.540Z,15.38
2022-10-22T15:06:45.191Z,19.40
2022-10-22T15:09:31.345Z,17.95
2022-10-22T15:12:16.981Z,17.73
2022-10-22T15:15:02.563Z,16.75
2022-10-22T15:17:47.828Z,16.13
2022-10-22T15:20:33.276Z,15.68
2022-10-22T15:23:21.839Z,18.95
2022-10-22T15:26:08.405Z,20.48
2022-10-22T15:28:54.570Z,13.07
2022-10-22T15:31:44.377Z,14.05
2022-10-22T15:34:34.912Z,14.55
2022-10-22T15:37:20.754Z,17.98
2022-10-22T15:40:08.669Z,14.05
2022-10-22T15:42:54.715Z,19.20
2022-10-22T15:45:40.174Z,19.23
2022-10-22T15:48:25.460Z,15.43
2022-10-22T15:51:16.528Z,22.88
2022-10-22T15:54:04.345Z,18.52
2022-10-22T15:56:51.958Z,19.52
2022-10-22T15:59:37.424Z,18.70
2022-10-22T16:02:23.050Z,19.45
2022-10-22T16:05:09.014Z,12.60
2022-10-22T16:07:56.399Z,18.27
2022-10-22T16:10:46.231Z,15.52
2022-10-22T16:13:31.728Z,25.17
2022-10-22T16:16:17.182Z,15.00
2022-10-22T16:19:03.195Z,22.98
2022-10-22T16:21:54.158Z,22.85
2022-10-22T16:24:40.903Z,29.90
2022-10-22T16:27:29.224Z,25.23
2022-10-22T16:30:15.143Z,24.98
2022-10-22T16:33:03.421Z,21.08
2022-10-22T16:36:03.823Z,23.52
2022-10-22T16:38:49.675Z,38.45
2022-10-22T16:41:35.513Z,21.92
2022-10-22T16:44:20.964Z,26.98
2022-10-22T16:47:12.392Z,22.67
2022-10-22T16:50:00.932Z,26.27
2022-10-22T16:52:50.740Z,21.75
2022-10-22T16:55:37.348Z,25.08
2022-10-22T16:58:22.717Z,18.38
2022-10-22T17:01:09.867Z,33.70
2022-10-22T17:03:56.267Z,25.25
2022-10-22T17:06:41.759Z,22.02
2022-10-22T17:09:27.235Z,39.63
2022-10-22T17:12:12.891Z,34.38
2022-10-22T17:15:01.929Z,26.55
2022-10-22T17:17:52.383Z,27.83
2022-10-22T17:20:42.124Z,32.67
2022-10-22T17:23:28.719Z,31.45
2022-10-22T17:26:22.641Z,30.98
2022-10-22T17:29:08.199Z,25.25
2022-10-22T17:31:54.084Z,32.45
2022-10-22T17:34:42.459Z,33.60
2022-10-22T17:37:28.137Z,25.20
2022-10-22T17:40:14.520Z,28.08
2022-10-22T17:43:00.040Z,26.77
2022-10-22T17:45:45.842Z,33.83
2022-10-22T17:48:31.333Z,29.48
2022-10-22T17:51:19.134Z,28.02
2022-10-22T17:54:07.382Z,35.38
2022-10-22T17:56:55.375Z,29.13
2022-10-22T17:59:40.623Z,24.65
2022-10-22T18:02:25.998Z,41.22
2022-10-22T18:05:12.453Z,29.40
2022-10-22T18:08:04.319Z,31.50
2022-10-22T18:10:53.074Z,35.60
2022-10-22T18:13:38.696Z,26.58
2022-10-22T18:16:24.883Z,31.48
2022-10-22T18:19:14.035Z,31.25
2022-10-22T18:22:00.739Z,32.85
2022-10-22T18:24:48.737Z,34.00
2022-10-22T18:27:33.940Z,36.47
2022-10-22T18:30:19.595Z,42.58
2022-10-22T18:33:05.238Z,34.78
2022-10-22T18:35:55.063Z,34.85
2022-10-22T18:38:40.711Z,34.92
2022-10-22T18:41:26.802Z,33.58
2022-10-22T18:44:16.203Z,30.52
2022-10-22T18:47:01.760Z,39.17
2022-10-22T18:49:51.693Z,38.55
2022-10-22T18:52:37.021Z,45.28
2022-10-22T18:55:22.363Z,36.95
2022-10-22T18:58:07.919Z,30.23
2022-10-22T19:00:53.229Z,33.67
2022-10-22T19:03:38.694Z,43.28
2022-10-22T19:06:29.986Z,31.17
2022-10-22T19:09:17.937Z,33.33
2022-10-22T19:12:03.538Z,40.15
2022-10-22T19:14:49.633Z,32.58
2022-10-22T19:17:35.171Z,38.22
2022-10-22T19:20:20.925Z,32.83
2022-10-22T19:23:07.426Z,36.97
2022-10-22T19:26:03.927Z,30.55
2022-10-22T19:28:49.727Z,30.52
2022-10-22T19:31:35.237Z,32.25
2022-10-22T19:34:21.278Z,32.47
2022-10-22T19:37:07.650Z,27.90
2022-10-22T19:39:53.089Z,28.08
2022-10-22T19:42:46.981Z,31.33
2022-10-22T19:45:32.513Z,24.67
2022-10-22T19:48:20.616Z,31.55
2022-10-22T19:51:11.908Z,33.97
2022-10-22T19:54:06.012Z,42.22
2022-10-22T19:56:51.474Z,34.22
2022-10-22T19:59:36.915Z,30.20
2022-10-22T20:02:26.245Z,29.77
2022-10-22T20:05:14.486Z,31.38
2022-10-22T20:07:59.955Z,30.90
2022-10-22T20:10:49.204Z,32.85
2022-10-22T20:13:35.462Z,29.77
2022-10-22T20:16:23.113Z,37.00
2022-10-22T20:19:09.113Z,31.30
2022-10-22T20:21:54.412Z,34.22
2022-10-22T20:24:39.817Z,27.90
2022-10-22T20:27:25.457Z,30.20
2022-10-22T20:30:11.295Z,30.13
2022-10-22T20:32:56.811Z,32.22
2022-10-22T20:35:42.811Z,29.05
2022-10-22T20:38:29.004Z,32.58
2022-10-22T20:41:20.537Z,31.20
2022-10-22T20:44:16.571Z,27.52
2022-10-22T20:47:01.869Z,33.53
2022-10-22T20:49:47.291Z,26.65
2022-10-22T20:52:33.016Z,31.42
2022-10-22T20:55:18.598Z,25.25
2022-10-22T20:58:04.087Z,23.77
2022-10-22T21:00:50.596Z,31.20
2022-10-22T21:03:37.523Z,33.53
2022-10-22T21:06:23.368Z,24.33
2022-10-22T21:09:12.288Z,30.80
2022-10-22T21:12:05.872Z,31.27
2022-10-22T21:14:51.594Z,27.80
2022-10-22T21:17:36.867Z,28.45
2022-10-22T21:20:24.745Z,29.05
2022-10-22T21:23:10.324Z,29.70
2022-10-22T21:25:56.900Z,28.85
2022-10-22T21:28:44.764Z,33.83
2022-10-22T21:31:30.289Z,30.35
2022-10-22T21:34:17.268Z,35.00
2022-10-22T21:37:02.869Z,25.90
2022-10-22T21:39:48.459Z,31.50
2022-10-22T21:42:34.282Z,30.73
2022-10-22T21:45:22.308Z,27.27
2022-10-22T21:48:08.003Z,24.17
2022-10-22T21:50:53.612Z,29.10
2022-10-22T21:53:39.785Z,30.88
2022-10-22T21:56:27.910Z,37.35
2022-10-22T21:59:13.598Z,30.52
2022-10-22T22:02:03.367Z,31.45
2022-10-22T22:04:54.688Z,27.60
2022-10-22T22:07:40.327Z,32.70
2022-10-22T22:10:29.030Z,30.05
2022-10-22T22:13:17.232Z,27.33
2022-10-22T22:16:06.238Z,29.95
2022-10-22T22:18:51.826Z,38.72
2022-10-22T22:21:41.299Z,33.95
2022-10-22T22:24:29.315Z,26.45
2022-10-22T22:27:17.192Z,31.65
2022-10-22T22:30:03.411Z,26.30
2022-10-22T22:32:49.660Z,25.05
2022-10-22T22:35:36.964Z,24.30
2022-10-22T22:38:22.037Z,32.53
2022-10-22T22:41:08.999Z,27.25
2022-10-22T22:46:41.052Z,35.05
2022-10-22T22:49:26.524Z,25.85
2022-10-22T22:52:11.996Z,36.10
2022-10-22T22:54:57.398Z,30.98
2022-10-22T22:57:43.136Z,27.27
2022-10-22T23:00:28.420Z,27.27
2022-10-22T23:03:14.110Z,30.20
2022-10-22T23:05:59.284Z,33.50
2022-10-22T23:08:48.038Z,28.75
2022-10-22T23:11:33.453Z,27.13
2022-10-22T23:14:19.741Z,26.67
2022-10-22T23:17:05.033Z,30.25
2022-10-22T23:19:50.770Z,30.40
2022-10-22T23:22:36.254Z,31.67
2022-10-22T23:25:21.812Z,31.13
2022-10-22T23:28:07.368Z,32.08
2022-10-22T23:30:52.867Z,35.38
2022-10-22T23:33:38.432Z,34.95
2022-10-22T23:36:23.986Z,29.10
2022-10-22T23:39:16.120Z,34.10
2022-10-22T23:42:01.648Z,31.27
2022-10-22T23:44:49.200Z,31.42
2022-10-22T23:47:34.708Z,36.97
2022-10-22T23:50:22.863Z,33.38
2022-10-22T23:53:09.433Z,40.30
2022-10-22T23:55:54.620Z,35.35
2022-10-22T23:58:40.135Z,44.58
